sensor_id;sensor_type;location;lat;lon;timestamp;P1;durP1;ratioP1;P2;durP2;ratioP2
13386;SDS011;6763;48.524;9.044;2024-02-14T00:01:23;7.50;;;3.50;;
13386;SDS011;6763;48.524;9.044;2024-02-14T00:03:48;8.37;;;4.10;;
13386;SDS011;6763;48.524;9.044;2024-02-14T00:06:14;7.70;;;5.63;;
13386;SDS011;6763;48.524;9.044;2024-02-14T00:08:39;5.93;;;4.30;;
13386;SDS011;6763;48.524;9.044;2024-02-14T00:11:04;3.83;;;2.83;;
13386;SDS011;6763;48.524;9.044;2024-02-14T00:13:30;6.00;;;3.17;;
13386;SDS011;6763;48.524;9.044;2024-02-14T00:15:59;5.73;;;3.03;;
13386;SDS011;6763;48.524;9.044;2024-02-14T00:18:24;6.83;;;3.00;;
13386;SDS011;6763;48.524;9.044;2024-02-14T00:20:50;5.63;;;3.50;;
13386;SDS011;6763;48.524;9.044;2024-02-14T00:23:15;3.60;;;2.60;;
13386;SDS011;6763;48.524;9.044;2024-02-14T00:25:40;5.87;;;3.47;;
13386;SDS011;6763;48.524;9.044;2024-02-14T00:28:06;4.83;;;3.30;;
13386;SDS011;6763;48.524;9.044;2024-02-14T00:30:31;6.33;;;3.03;;
13386;SDS011;6763;48.524;9.044;2024-02-14T00:32:56;4.20;;;2.90;;
13386;SDS011;6763;48.524;9.044;2024-02-14T00:35:22;3.27;;;2.50;;
13386;SDS011;6763;48.524;9.044;2024-02-14T00:37:47;6.33;;;2.30;;
13386;SDS011;6763;48.524;9.044;2024-02-14T00:40:13;5.17;;;2.43;;
13386;SDS011;6763;48.524;9.044;2024-02-14T00:42:38;3.73;;;2.80;;
13386;SDS011;6763;48.524;9.044;2024-02-14T00:45:04;3.33;;;2.70;;
13386;SDS011;6763;48.524;9.044;2024-02-14T00:47:32;4.63;;;2.90;;
13386;SDS011;6763;48.524;9.044;2024-02-14T00:49:58;4.57;;;2.37;;
13386;SDS011;6763;48.524;9.044;2024-02-14T00:52:23;3.90;;;2.70;;
13386;SDS011;6763;48.524;9.044;2024-02-14T00:54:49;4.47;;;2.57;;
13386;SDS011;6763;48.524;9.044;2024-02-14T00:57:14;2.73;;;2.20;;
13386;SDS011;6763;48.524;9.044;2024-02-14T00:59:40;4.33;;;2.50;;
13386;SDS011;6763;48.524;9.044;2024-02-14T01:02:06;4.80;;;2.67;;
13386;SDS011;6763;48.524;9.044;2024-02-14T01:04:32;3.03;;;2.40;;
13386;SDS011;6763;48.524;9.044;2024-02-14T01:06:57;4.07;;;2.70;;
13386;SDS011;6763;48.524;9.044;2024-02-14T01:09:23;7.10;;;2.87;;
13386;SDS011;6763;48.524;9.044;2024-02-14T01:11:48;3.27;;;2.57;;
13386;SDS011;6763;48.524;9.044;2024-02-14T01:14:14;4.27;;;2.47;;
13386;SDS011;6763;48.524;9.044;2024-02-14T01:16:43;3.37;;;2.93;;
13386;SDS011;6763;48.524;9.044;2024-02-14T01:19:09;4.27;;;3.47;;
13386;SDS011;6763;48.524;9.044;2024-02-14T01:21:35;6.77;;;4.00;;
13386;SDS011;6763;48.524;9.044;2024-02-14T01:24:00;5.03;;;3.77;;
13386;SDS011;6763;48.524;9.044;2024-02-14T01:26:25;8.80;;;4.37;;
13386;SDS011;6763;48.524;9.044;2024-02-14T01:28:51;6.17;;;3.60;;
13386;SDS011;6763;48.524;9.044;2024-02-14T01:31:16;5.47;;;3.50;;
13386;SDS011;6763;48.524;9.044;2024-02-14T01:33:41;3.90;;;3.00;;
13386;SDS011;6763;48.524;9.044;2024-02-14T01:36:07;4.80;;;3.57;;
13386;SDS011;6763;48.524;9.044;2024-02-14T01:38:32;5.43;;;3.83;;
13386;SDS011;6763;48.524;9.044;2024-02-14T01:41:00;5.10;;;3.17;;
13386;SDS011;6763;48.524;9.044;2024-02-14T01:43:27;3.60;;;2.57;;
13386;SDS011;6763;48.524;9.044;2024-02-14T01:45:53;4.80;;;3.00;;
13386;SDS011;6763;48.524;9.044;2024-02-14T01:48:18;5.30;;;3.37;;
13386;SDS011;6763;48.524;9.044;2024-02-14T01:50:44;4.63;;;3.13;;
13386;SDS011;6763;48.524;9.044;2024-02-14T01:53:10;5.70;;;3.00;;
13386;SDS011;6763;48.524;9.044;2024-02-14T01:55:36;4.57;;;3.17;;
13386;SDS011;6763;48.524;9.044;2024-02-14T01:58:02;7.27;;;3.30;;
13386;SDS011;6763;48.524;9.044;2024-02-14T02:00:29;5.00;;;3.30;;
13386;SDS011;6763;48.524;9.044;2024-02-14T02:02:56;4.40;;;3.20;;
13386;SDS011;6763;48.524;9.044;2024-02-14T02:05:22;4.57;;;3.23;;
13386;SDS011;6763;48.524;9.044;2024-02-14T02:07:47;4.57;;;3.40;;
13386;SDS011;6763;48.524;9.044;2024-02-14T02:10:14;4.30;;;2.90;;
13386;SDS011;6763;48.524;9.044;2024-02-14T02:12:40;4.90;;;2.97;;
13386;SDS011;6763;48.524;9.044;2024-02-14T02:15:05;3.60;;;2.30;;
13386;SDS011;6763;48.524;9.044;2024-02-14T02:17:31;5.67;;;3.17;;
13386;SDS011;6763;48.524;9.044;2024-02-14T02:19:59;5.50;;;2.87;;
13386;SDS011;6763;48.524;9.044;2024-02-14T02:22:25;6.23;;;3.07;;
13386;SDS011;6763;48.524;9.044;2024-02-14T02:24:50;6.03;;;2.70;;
13386;SDS011;6763;48.524;9.044;2024-02-14T02:27:15;4.03;;;2.60;;
13386;SDS011;6763;48.524;9.044;2024-02-14T02:29:41;3.73;;;2.40;;
13386;SDS011;6763;48.524;9.044;2024-02-14T02:32:07;3.80;;;2.27;;
13386;SDS011;6763;48.524;9.044;2024-02-14T02:34:34;4.30;;;2.93;;
13386;SDS011;6763;48.524;9.044;2024-02-14T02:37:01;4.57;;;2.70;;
13386;SDS011;6763;48.524;9.044;2024-02-14T02:39:26;4.77;;;2.87;;
13386;SDS011;6763;48.524;9.044;2024-02-14T02:41:52;4.37;;;2.53;;
13386;SDS011;6763;48.524;9.044;2024-02-14T02:44:20;4.97;;;2.67;;
13386;SDS011;6763;48.524;9.044;2024-02-14T02:46:46;3.87;;;2.43;;
13386;SDS011;6763;48.524;9.044;2024-02-14T02:49:11;4.50;;;2.50;;
13386;SDS011;6763;48.524;9.044;2024-02-14T02:51:38;7.90;;;3.10;;
13386;SDS011;6763;48.524;9.044;2024-02-14T02:54:04;4.87;;;3.30;;
13386;SDS011;6763;48.524;9.044;2024-02-14T02:56:29;4.27;;;3.03;;
13386;SDS011;6763;48.524;9.044;2024-02-14T02:58:55;4.07;;;2.63;;
13386;SDS011;6763;48.524;9.044;2024-02-14T03:01:20;4.90;;;3.10;;
13386;SDS011;6763;48.524;9.044;2024-02-14T03:03:48;4.63;;;2.70;;
13386;SDS011;6763;48.524;9.044;2024-02-14T03:06:14;4.73;;;3.13;;
13386;SDS011;6763;48.524;9.044;2024-02-14T03:08:39;4.63;;;2.73;;
13386;SDS011;6763;48.524;9.044;2024-02-14T03:11:05;3.60;;;2.63;;
13386;SDS011;6763;48.524;9.044;2024-02-14T03:13:33;3.17;;;2.73;;
13386;SDS011;6763;48.524;9.044;2024-02-14T03:16:00;4.77;;;3.10;;
13386;SDS011;6763;48.524;9.044;2024-02-14T03:18:26;5.53;;;2.67;;
13386;SDS011;6763;48.524;9.044;2024-02-14T03:20:51;4.00;;;2.90;;
13386;SDS011;6763;48.524;9.044;2024-02-14T03:23:18;3.20;;;2.47;;
13386;SDS011;6763;48.524;9.044;2024-02-14T03:25:44;4.53;;;2.83;;
13386;SDS011;6763;48.524;9.044;2024-02-14T03:28:09;4.20;;;2.63;;
13386;SDS011;6763;48.524;9.044;2024-02-14T03:30:35;4.23;;;2.73;;
13386;SDS011;6763;48.524;9.044;2024-02-14T03:33:01;3.70;;;2.40;;
13386;SDS011;6763;48.524;9.044;2024-02-14T03:35:28;6.03;;;2.97;;
13386;SDS011;6763;48.524;9.044;2024-02-14T03:37:53;4.47;;;2.60;;
13386;SDS011;6763;48.524;9.044;2024-02-14T03:40:18;4.23;;;2.80;;
13386;SDS011;6763;48.524;9.044;2024-02-14T03:42:47;3.40;;;2.40;;
13386;SDS011;6763;48.524;9.044;2024-02-14T03:45:12;4.93;;;3.17;;
13386;SDS011;6763;48.524;9.044;2024-02-14T03:47:38;8.17;;;3.97;;
13386;SDS011;6763;48.524;9.044;2024-02-14T03:50:04;4.67;;;3.37;;
13386;SDS011;6763;48.524;9.044;2024-02-14T03:52:30;6.47;;;3.63;;
13386;SDS011;6763;48.524;9.044;2024-02-14T03:54:59;8.07;;;3.70;;
13386;SDS011;6763;48.524;9.044;2024-02-14T03:57:25;4.30;;;3.20;;
13386;SDS011;6763;48.524;9.044;2024-02-14T03:59:53;4.30;;;3.17;;
13386;SDS011;6763;48.524;9.044;2024-02-14T04:02:22;6.23;;;3.60;;
13386;SDS011;6763;48.524;9.044;2024-02-14T04:04:53;6.90;;;3.53;;
13386;SDS011;6763;48.524;9.044;2024-02-14T04:07:18;3.87;;;2.73;;
13386;SDS011;6763;48.524;9.044;2024-02-14T04:09:43;4.83;;;3.23;;
13386;SDS011;6763;48.524;9.044;2024-02-14T04:12:09;5.70;;;3.17;;
13386;SDS011;6763;48.524;9.044;2024-02-14T04:14:35;3.70;;;3.03;;
13386;SDS011;6763;48.524;9.044;2024-02-14T04:17:02;4.23;;;2.90;;
13386;SDS011;6763;48.524;9.044;2024-02-14T04:19:27;5.63;;;2.77;;
13386;SDS011;6763;48.524;9.044;2024-02-14T04:21:53;4.67;;;2.87;;
13386;SDS011;6763;48.524;9.044;2024-02-14T04:24:19;4.10;;;2.93;;
13386;SDS011;6763;48.524;9.044;2024-02-14T04:26:44;4.70;;;3.40;;
13386;SDS011;6763;48.524;9.044;2024-02-14T04:29:09;5.67;;;3.67;;
13386;SDS011;6763;48.524;9.044;2024-02-14T04:31:35;4.83;;;4.33;;
13386;SDS011;6763;48.524;9.044;2024-02-14T04:34:01;5.83;;;3.37;;
13386;SDS011;6763;48.524;9.044;2024-02-14T04:36:26;11.80;;;3.93;;
13386;SDS011;6763;48.524;9.044;2024-02-14T04:38:52;7.27;;;3.93;;
13386;SDS011;6763;48.524;9.044;2024-02-14T04:41:18;4.17;;;3.23;;
13386;SDS011;6763;48.524;9.044;2024-02-14T04:43:43;7.67;;;3.00;;
13386;SDS011;6763;48.524;9.044;2024-02-14T04:46:09;5.50;;;3.60;;
13386;SDS011;6763;48.524;9.044;2024-02-14T04:48:34;6.03;;;3.27;;
13386;SDS011;6763;48.524;9.044;2024-02-14T04:51:00;5.07;;;3.33;;
13386;SDS011;6763;48.524;9.044;2024-02-14T04:53:26;3.80;;;3.07;;
13386;SDS011;6763;48.524;9.044;2024-02-14T04:55:52;4.47;;;3.27;;
13386;SDS011;6763;48.524;9.044;2024-02-14T04:58:18;5.00;;;3.23;;
13386;SDS011;6763;48.524;9.044;2024-02-14T05:00:44;7.60;;;4.27;;
13386;SDS011;6763;48.524;9.044;2024-02-14T05:03:10;6.00;;;4.03;;
13386;SDS011;6763;48.524;9.044;2024-02-14T05:05:35;4.13;;;3.73;;
13386;SDS011;6763;48.524;9.044;2024-02-14T05:08:01;6.00;;;3.40;;
13386;SDS011;6763;48.524;9.044;2024-02-14T05:10:30;7.03;;;3.97;;
13386;SDS011;6763;48.524;9.044;2024-02-14T05:12:57;4.80;;;3.73;;
13386;SDS011;6763;48.524;9.044;2024-02-14T05:15:23;4.77;;;3.40;;
13386;SDS011;6763;48.524;9.044;2024-02-14T05:17:48;4.30;;;3.43;;
13386;SDS011;6763;48.524;9.044;2024-02-14T05:20:15;9.30;;;4.50;;
13386;SDS011;6763;48.524;9.044;2024-02-14T05:22:40;5.67;;;4.17;;
13386;SDS011;6763;48.524;9.044;2024-02-14T05:25:06;6.23;;;3.67;;
13386;SDS011;6763;48.524;9.044;2024-02-14T05:27:35;10.97;;;6.77;;
13386;SDS011;6763;48.524;9.044;2024-02-14T05:30:02;21.80;;;9.63;;
13386;SDS011;6763;48.524;9.044;2024-02-14T05:32:30;7.73;;;4.70;;
13386;SDS011;6763;48.524;9.044;2024-02-14T05:34:56;4.43;;;3.87;;
13386;SDS011;6763;48.524;9.044;2024-02-14T05:37:21;4.43;;;3.93;;
13386;SDS011;6763;48.524;9.044;2024-02-14T05:39:46;5.47;;;4.27;;
13386;SDS011;6763;48.524;9.044;2024-02-14T05:42:12;5.47;;;4.50;;
13386;SDS011;6763;48.524;9.044;2024-02-14T05:44:37;6.70;;;4.80;;
13386;SDS011;6763;48.524;9.044;2024-02-14T05:47:02;8.13;;;3.37;;
13386;SDS011;6763;48.524;9.044;2024-02-14T05:49:28;10.90;;;5.37;;
13386;SDS011;6763;48.524;9.044;2024-02-14T05:51:53;10.60;;;5.70;;
13386;SDS011;6763;48.524;9.044;2024-02-14T05:54:19;6.60;;;4.00;;
13386;SDS011;6763;48.524;9.044;2024-02-14T05:56:45;4.97;;;3.53;;
13386;SDS011;6763;48.524;9.044;2024-02-14T05:59:11;4.23;;;3.47;;
13386;SDS011;6763;48.524;9.044;2024-02-14T06:01:36;5.23;;;3.77;;
13386;SDS011;6763;48.524;9.044;2024-02-14T06:04:02;4.57;;;3.27;;
13386;SDS011;6763;48.524;9.044;2024-02-14T06:06:27;6.63;;;3.67;;
13386;SDS011;6763;48.524;9.044;2024-02-14T06:08:52;4.30;;;2.90;;
13386;SDS011;6763;48.524;9.044;2024-02-14T06:11:18;6.43;;;4.40;;
13386;SDS011;6763;48.524;9.044;2024-02-14T06:13:46;6.83;;;4.03;;
13386;SDS011;6763;48.524;9.044;2024-02-14T06:16:14;6.13;;;3.80;;
13386;SDS011;6763;48.524;9.044;2024-02-14T06:18:39;4.83;;;3.87;;
13386;SDS011;6763;48.524;9.044;2024-02-14T06:21:05;6.23;;;3.77;;
13386;SDS011;6763;48.524;9.044;2024-02-14T06:23:31;4.47;;;3.67;;
13386;SDS011;6763;48.524;9.044;2024-02-14T06:25:57;7.53;;;4.67;;
13386;SDS011;6763;48.524;9.044;2024-02-14T06:28:23;6.20;;;3.93;;
13386;SDS011;6763;48.524;9.044;2024-02-14T06:30:48;4.80;;;3.30;;
13386;SDS011;6763;48.524;9.044;2024-02-14T06:33:13;6.70;;;3.77;;
13386;SDS011;6763;48.524;9.044;2024-02-14T06:35:38;7.73;;;3.17;;
13386;SDS011;6763;48.524;9.044;2024-02-14T06:38:04;4.17;;;3.03;;
13386;SDS011;6763;48.524;9.044;2024-02-14T06:40:29;7.30;;;4.87;;
13386;SDS011;6763;48.524;9.044;2024-02-14T06:42:54;5.63;;;3.30;;
13386;SDS011;6763;48.524;9.044;2024-02-14T06:45:20;5.37;;;3.17;;
13386;SDS011;6763;48.524;9.044;2024-02-14T06:47:45;5.37;;;3.77;;
13386;SDS011;6763;48.524;9.044;2024-02-14T06:50:11;4.87;;;3.13;;
13386;SDS011;6763;48.524;9.044;2024-02-14T06:52:36;5.33;;;2.70;;
13386;SDS011;6763;48.524;9.044;2024-02-14T06:55:01;3.67;;;2.37;;
13386;SDS011;6763;48.524;9.044;2024-02-14T06:57:28;2.70;;;2.30;;
13386;SDS011;6763;48.524;9.044;2024-02-14T06:59:54;3.67;;;2.37;;
13386;SDS011;6763;48.524;9.044;2024-02-14T07:02:19;4.70;;;2.50;;
13386;SDS011;6763;48.524;9.044;2024-02-14T07:04:44;3.50;;;2.80;;
13386;SDS011;6763;48.524;9.044;2024-02-14T07:07:10;3.67;;;2.53;;
13386;SDS011;6763;48.524;9.044;2024-02-14T07:09:35;4.40;;;2.70;;
13386;SDS011;6763;48.524;9.044;2024-02-14T07:12:02;5.23;;;3.20;;
13386;SDS011;6763;48.524;9.044;2024-02-14T07:14:27;5.47;;;2.50;;
13386;SDS011;6763;48.524;9.044;2024-02-14T07:16:53;4.83;;;2.80;;
13386;SDS011;6763;48.524;9.044;2024-02-14T07:19:19;5.80;;;3.83;;
13386;SDS011;6763;48.524;9.044;2024-02-14T07:21:44;3.77;;;2.87;;
13386;SDS011;6763;48.524;9.044;2024-02-14T07:24:09;5.07;;;3.80;;
13386;SDS011;6763;48.524;9.044;2024-02-14T07:26:35;4.70;;;3.73;;
13386;SDS011;6763;48.524;9.044;2024-02-14T07:29:00;4.17;;;3.27;;
13386;SDS011;6763;48.524;9.044;2024-02-14T07:31:28;4.53;;;3.70;;
13386;SDS011;6763;48.524;9.044;2024-02-14T07:33:59;7.70;;;3.80;;
13386;SDS011;6763;48.524;9.044;2024-02-14T07:36:25;4.43;;;3.30;;
13386;SDS011;6763;48.524;9.044;2024-02-14T07:38:51;8.00;;;3.80;;
13386;SDS011;6763;48.524;9.044;2024-02-14T07:41:16;5.20;;;3.40;;
13386;SDS011;6763;48.524;9.044;2024-02-14T07:43:41;4.50;;;3.33;;
13386;SDS011;6763;48.524;9.044;2024-02-14T07:46:07;4.90;;;3.87;;
13386;SDS011;6763;48.524;9.044;2024-02-14T07:48:33;5.20;;;3.40;;
13386;SDS011;6763;48.524;9.044;2024-02-14T07:50:58;4.23;;;3.20;;
13386;SDS011;6763;48.524;9.044;2024-02-14T07:53:24;5.83;;;3.70;;
13386;SDS011;6763;48.524;9.044;2024-02-14T07:55:50;5.57;;;3.53;;
13386;SDS011;6763;48.524;9.044;2024-02-14T07:58:16;4.60;;;3.37;;
13386;SDS011;6763;48.524;9.044;2024-02-14T08:00:41;5.17;;;3.10;;
13386;SDS011;6763;48.524;9.044;2024-02-14T08:03:06;5.20;;;3.50;;
13386;SDS011;6763;48.524;9.044;2024-02-14T08:05:33;4.53;;;3.30;;
13386;SDS011;6763;48.524;9.044;2024-02-14T08:07:59;6.07;;;3.53;;
13386;SDS011;6763;48.524;9.044;2024-02-14T08:10:25;6.03;;;3.83;;
13386;SDS011;6763;48.524;9.044;2024-02-14T08:12:50;5.33;;;3.70;;
13386;SDS011;6763;48.524;9.044;2024-02-14T08:15:15;7.30;;;3.47;;
13386;SDS011;6763;48.524;9.044;2024-02-14T08:17:40;5.73;;;3.53;;
13386;SDS011;6763;48.524;9.044;2024-02-14T08:20:06;3.40;;;3.10;;
13386;SDS011;6763;48.524;9.044;2024-02-14T08:22:32;5.20;;;3.50;;
13386;SDS011;6763;48.524;9.044;2024-02-14T08:24:57;5.83;;;3.00;;
13386;SDS011;6763;48.524;9.044;2024-02-14T08:27:23;3.40;;;3.00;;
13386;SDS011;6763;48.524;9.044;2024-02-14T08:29:49;4.13;;;3.10;;
13386;SDS011;6763;48.524;9.044;2024-02-14T08:32:14;5.77;;;2.90;;
13386;SDS011;6763;48.524;9.044;2024-02-14T08:34:39;3.40;;;2.83;;
13386;SDS011;6763;48.524;9.044;2024-02-14T08:37:05;5.17;;;3.10;;
13386;SDS011;6763;48.524;9.044;2024-02-14T08:39:31;3.87;;;3.00;;
13386;SDS011;6763;48.524;9.044;2024-02-14T08:41:57;4.23;;;2.70;;
13386;SDS011;6763;48.524;9.044;2024-02-14T08:44:22;3.97;;;2.80;;
13386;SDS011;6763;48.524;9.044;2024-02-14T08:46:47;5.80;;;3.20;;
13386;SDS011;6763;48.524;9.044;2024-02-14T08:49:16;5.63;;;3.53;;
13386;SDS011;6763;48.524;9.044;2024-02-14T08:51:41;5.70;;;3.27;;
13386;SDS011;6763;48.524;9.044;2024-02-14T08:54:09;3.80;;;3.00;;
13386;SDS011;6763;48.524;9.044;2024-02-14T08:56:34;3.63;;;2.67;;
13386;SDS011;6763;48.524;9.044;2024-02-14T08:59:00;4.83;;;2.67;;
13386;SDS011;6763;48.524;9.044;2024-02-14T09:01:27;2.73;;;2.23;;
13386;SDS011;6763;48.524;9.044;2024-02-14T09:03:53;2.60;;;2.20;;
13386;SDS011;6763;48.524;9.044;2024-02-14T09:06:19;3.10;;;2.20;;
13386;SDS011;6763;48.524;9.044;2024-02-14T09:08:44;4.47;;;2.83;;
13386;SDS011;6763;48.524;9.044;2024-02-14T09:11:09;4.57;;;2.20;;
13386;SDS011;6763;48.524;9.044;2024-02-14T09:13:35;2.10;;;1.87;;
13386;SDS011;6763;48.524;9.044;2024-02-14T09:16:00;2.47;;;2.07;;
13386;SDS011;6763;48.524;9.044;2024-02-14T09:18:26;2.90;;;2.00;;
13386;SDS011;6763;48.524;9.044;2024-02-14T09:20:52;4.10;;;2.30;;
13386;SDS011;6763;48.524;9.044;2024-02-14T09:23:17;3.47;;;2.27;;
13386;SDS011;6763;48.524;9.044;2024-02-14T09:25:47;2.23;;;1.90;;
13386;SDS011;6763;48.524;9.044;2024-02-14T09:28:13;3.00;;;1.77;;
13386;SDS011;6763;48.524;9.044;2024-02-14T09:30:39;4.77;;;1.80;;
13386;SDS011;6763;48.524;9.044;2024-02-14T09:33:04;2.00;;;1.80;;
13386;SDS011;6763;48.524;9.044;2024-02-14T09:35:30;3.10;;;2.03;;
13386;SDS011;6763;48.524;9.044;2024-02-14T09:37:55;2.00;;;1.80;;
13386;SDS011;6763;48.524;9.044;2024-02-14T09:40:21;2.67;;;1.90;;
13386;SDS011;6763;48.524;9.044;2024-02-14T09:42:53;2.67;;;1.60;;
13386;SDS011;6763;48.524;9.044;2024-02-14T09:45:19;2.20;;;1.97;;
13386;SDS011;6763;48.524;9.044;2024-02-14T09:47:45;2.53;;;1.90;;
13386;SDS011;6763;48.524;9.044;2024-02-14T09:50:11;4.33;;;1.80;;
13386;SDS011;6763;48.524;9.044;2024-02-14T09:52:37;2.10;;;1.50;;
13386;SDS011;6763;48.524;9.044;2024-02-14T09:55:03;3.93;;;1.60;;
13386;SDS011;6763;48.524;9.044;2024-02-14T09:57:30;2.53;;;1.67;;
13386;SDS011;6763;48.524;9.044;2024-02-14T09:59:56;3.97;;;1.90;;
13386;SDS011;6763;48.524;9.044;2024-02-14T10:02:24;3.90;;;2.30;;
13386;SDS011;6763;48.524;9.044;2024-02-14T10:04:50;3.23;;;2.00;;
13386;SDS011;6763;48.524;9.044;2024-02-14T10:07:15;2.97;;;1.60;;
13386;SDS011;6763;48.524;9.044;2024-02-14T10:09:40;3.10;;;2.00;;
13386;SDS011;6763;48.524;9.044;2024-02-14T10:12:09;3.47;;;1.83;;
13386;SDS011;6763;48.524;9.044;2024-02-14T10:14:35;2.57;;;1.70;;
13386;SDS011;6763;48.524;9.044;2024-02-14T10:17:05;2.37;;;1.77;;
13386;SDS011;6763;48.524;9.044;2024-02-14T10:19:30;3.20;;;1.50;;
13386;SDS011;6763;48.524;9.044;2024-02-14T10:21:57;3.03;;;1.40;;
13386;SDS011;6763;48.524;9.044;2024-02-14T10:24:24;2.37;;;1.60;;
13386;SDS011;6763;48.524;9.044;2024-02-14T10:26:50;2.90;;;1.20;;
13386;SDS011;6763;48.524;9.044;2024-02-14T10:29:16;1.97;;;1.27;;
13386;SDS011;6763;48.524;9.044;2024-02-14T10:31:42;1.73;;;0.87;;
13386;SDS011;6763;48.524;9.044;2024-02-14T10:34:07;1.43;;;0.90;;
13386;SDS011;6763;48.524;9.044;2024-02-14T10:36:34;1.03;;;0.90;;
13386;SDS011;6763;48.524;9.044;2024-02-14T10:39:00;0.80;;;0.63;;
13386;SDS011;6763;48.524;9.044;2024-02-14T10:41:29;1.27;;;0.70;;
13386;SDS011;6763;48.524;9.044;2024-02-14T10:43:59;1.20;;;1.10;;
13386;SDS011;6763;48.524;9.044;2024-02-14T10:46:25;1.00;;;0.80;;
13386;SDS011;6763;48.524;9.044;2024-02-14T10:48:58;1.50;;;1.10;;
13386;SDS011;6763;48.524;9.044;2024-02-14T10:51:36;2.00;;;1.10;;
13386;SDS011;6763;48.524;9.044;2024-02-14T10:54:03;4.13;;;0.90;;
13386;SDS011;6763;48.524;9.044;2024-02-14T10:56:34;1.70;;;0.90;;
13386;SDS011;6763;48.524;9.044;2024-02-14T10:59:01;0.60;;;0.60;;
13386;SDS011;6763;48.524;9.044;2024-02-14T11:01:27;1.60;;;0.90;;
13386;SDS011;6763;48.524;9.044;2024-02-14T11:03:57;0.60;;;0.60;;
13386;SDS011;6763;48.524;9.044;2024-02-14T11:06:24;0.70;;;0.70;;
13386;SDS011;6763;48.524;9.044;2024-02-14T11:08:57;0.70;;;0.70;;
13386;SDS011;6763;48.524;9.044;2024-02-14T11:11:27;0.60;;;0.60;;
13386;SDS011;6763;48.524;9.044;2024-02-14T11:13:54;0.63;;;0.63;;
13386;SDS011;6763;48.524;9.044;2024-02-14T11:16:26;1.97;;;0.77;;
13386;SDS011;6763;48.524;9.044;2024-02-14T11:19:14;0.60;;;0.60;;
13386;SDS011;6763;48.524;9.044;2024-02-14T11:21:41;0.50;;;0.50;;
13386;SDS011;6763;48.524;9.044;2024-02-14T11:24:09;0.70;;;0.50;;
13386;SDS011;6763;48.524;9.044;2024-02-14T11:29:17;0.50;;;0.50;;
13386;SDS011;6763;48.524;9.044;2024-02-14T11:31:45;0.80;;;0.60;;
13386;SDS011;6763;48.524;9.044;2024-02-14T11:34:13;0.60;;;0.60;;
13386;SDS011;6763;48.524;9.044;2024-02-14T11:36:41;1.13;;;0.80;;
13386;SDS011;6763;48.524;9.044;2024-02-14T11:39:07;0.60;;;0.60;;
13386;SDS011;6763;48.524;9.044;2024-02-14T11:41:32;0.60;;;0.60;;
13386;SDS011;6763;48.524;9.044;2024-02-14T11:44:02;0.60;;;0.60;;
13386;SDS011;6763;48.524;9.044;2024-02-14T11:46:29;0.70;;;0.70;;
13386;SDS011;6763;48.524;9.044;2024-02-14T11:48:56;0.47;;;0.47;;
13386;SDS011;6763;48.524;9.044;2024-02-14T11:51:22;0.80;;;0.60;;
13386;SDS011;6763;48.524;9.044;2024-02-14T11:53:47;0.80;;;0.60;;
13386;SDS011;6763;48.524;9.044;2024-02-14T11:56:14;0.73;;;0.50;;
13386;SDS011;6763;48.524;9.044;2024-02-14T11:58:39;2.37;;;1.77;;
13386;SDS011;6763;48.524;9.044;2024-02-14T12:01:05;0.60;;;0.60;;
13386;SDS011;6763;48.524;9.044;2024-02-14T12:03:30;0.67;;;0.60;;
13386;SDS011;6763;48.524;9.044;2024-02-14T12:05:56;1.07;;;0.60;;
13386;SDS011;6763;48.524;9.044;2024-02-14T12:08:22;0.40;;;0.40;;
13386;SDS011;6763;48.524;9.044;2024-02-14T12:10:48;0.50;;;0.50;;
13386;SDS011;6763;48.524;9.044;2024-02-14T12:13:20;0.50;;;0.50;;
13386;SDS011;6763;48.524;9.044;2024-02-14T12:15:47;0.60;;;0.60;;
13386;SDS011;6763;48.524;9.044;2024-02-14T12:18:14;0.70;;;0.67;;
13386;SDS011;6763;48.524;9.044;2024-02-14T12:20:41;0.80;;;0.63;;
13386;SDS011;6763;48.524;9.044;2024-02-14T12:23:08;0.50;;;0.50;;
13386;SDS011;6763;48.524;9.044;2024-02-14T12:25:39;0.40;;;0.40;;
13386;SDS011;6763;48.524;9.044;2024-02-14T12:28:04;0.80;;;0.80;;
13386;SDS011;6763;48.524;9.044;2024-02-14T12:30:44;0.70;;;0.70;;
13386;SDS011;6763;48.524;9.044;2024-02-14T12:33:22;0.73;;;0.47;;
13386;SDS011;6763;48.524;9.044;2024-02-14T12:35:49;0.50;;;0.50;;
13386;SDS011;6763;48.524;9.044;2024-02-14T12:38:16;0.50;;;0.50;;
13386;SDS011;6763;48.524;9.044;2024-02-14T12:40:43;0.60;;;0.60;;
13386;SDS011;6763;48.524;9.044;2024-02-14T12:43:10;0.80;;;0.80;;
13386;SDS011;6763;48.524;9.044;2024-02-14T12:45:39;1.03;;;0.50;;
13386;SDS011;6763;48.524;9.044;2024-02-14T12:48:06;1.27;;;0.60;;
13386;SDS011;6763;48.524;9.044;2024-02-14T12:50:33;0.50;;;0.50;;
13386;SDS011;6763;48.524;9.044;2024-02-14T12:53:00;0.43;;;0.40;;
13386;SDS011;6763;48.524;9.044;2024-02-14T12:55:27;0.50;;;0.50;;
13386;SDS011;6763;48.524;9.044;2024-02-14T12:57:53;0.40;;;0.40;;
13386;SDS011;6763;48.524;9.044;2024-02-14T13:00:19;0.50;;;0.50;;
13386;SDS011;6763;48.524;9.044;2024-02-14T13:02:46;0.47;;;0.40;;
13386;SDS011;6763;48.524;9.044;2024-02-14T13:05:12;0.40;;;0.40;;
13386;SDS011;6763;48.524;9.044;2024-02-14T13:07:37;0.40;;;0.40;;
13386;SDS011;6763;48.524;9.044;2024-02-14T13:10:03;0.40;;;0.40;;
13386;SDS011;6763;48.524;9.044;2024-02-14T13:12:29;0.50;;;0.50;;
13386;SDS011;6763;48.524;9.044;2024-02-14T13:14:54;0.40;;;0.40;;
13386;SDS011;6763;48.524;9.044;2024-02-14T13:17:19;0.40;;;0.40;;
13386;SDS011;6763;48.524;9.044;2024-02-14T13:19:45;0.40;;;0.40;;
13386;SDS011;6763;48.524;9.044;2024-02-14T13:22:10;0.50;;;0.50;;
13386;SDS011;6763;48.524;9.044;2024-02-14T13:24:37;0.40;;;0.40;;
13386;SDS011;6763;48.524;9.044;2024-02-14T13:27:03;0.33;;;0.30;;
13386;SDS011;6763;48.524;9.044;2024-02-14T13:29:28;0.53;;;0.50;;
13386;SDS011;6763;48.524;9.044;2024-02-14T13:31:54;0.30;;;0.30;;
13386;SDS011;6763;48.524;9.044;2024-02-14T13:34:19;0.37;;;0.37;;
13386;SDS011;6763;48.524;9.044;2024-02-14T13:36:45;0.40;;;0.40;;
13386;SDS011;6763;48.524;9.044;2024-02-14T13:39:12;0.43;;;0.43;;
13386;SDS011;6763;48.524;9.044;2024-02-14T13:41:38;1.87;;;0.50;;
13386;SDS011;6763;48.524;9.044;2024-02-14T13:44:06;0.30;;;0.30;;
13386;SDS011;6763;48.524;9.044;2024-02-14T13:46:33;0.40;;;0.40;;
13386;SDS011;6763;48.524;9.044;2024-02-14T13:48:59;0.50;;;0.50;;
13386;SDS011;6763;48.524;9.044;2024-02-14T13:51:24;0.40;;;0.40;;
13386;SDS011;6763;48.524;9.044;2024-02-14T13:53:49;0.50;;;0.50;;
13386;SDS011;6763;48.524;9.044;2024-02-14T13:56:15;0.40;;;0.40;;
13386;SDS011;6763;48.524;9.044;2024-02-14T13:58:41;0.40;;;0.40;;
13386;SDS011;6763;48.524;9.044;2024-02-14T14:01:06;0.33;;;0.33;;
13386;SDS011;6763;48.524;9.044;2024-02-14T14:03:32;0.40;;;0.40;;
13386;SDS011;6763;48.524;9.044;2024-02-14T14:05:59;0.40;;;0.40;;
13386;SDS011;6763;48.524;9.044;2024-02-14T14:08:25;1.00;;;0.50;;
13386;SDS011;6763;48.524;9.044;2024-02-14T14:10:50;0.60;;;0.60;;
13386;SDS011;6763;48.524;9.044;2024-02-14T14:13:16;0.97;;;0.50;;
13386;SDS011;6763;48.524;9.044;2024-02-14T14:15:41;0.50;;;0.50;;
13386;SDS011;6763;48.524;9.044;2024-02-14T14:18:06;0.40;;;0.40;;
13386;SDS011;6763;48.524;9.044;2024-02-14T14:20:33;0.40;;;0.40;;
13386;SDS011;6763;48.524;9.044;2024-02-14T14:22:59;0.43;;;0.43;;
13386;SDS011;6763;48.524;9.044;2024-02-14T14:25:25;0.67;;;0.67;;
13386;SDS011;6763;48.524;9.044;2024-02-14T14:27:53;0.57;;;0.33;;
13386;SDS011;6763;48.524;9.044;2024-02-14T14:30:18;0.40;;;0.40;;
13386;SDS011;6763;48.524;9.044;2024-02-14T14:32:44;0.60;;;0.50;;
13386;SDS011;6763;48.524;9.044;2024-02-14T14:35:09;0.40;;;0.40;;
13386;SDS011;6763;48.524;9.044;2024-02-14T14:37:35;0.30;;;0.30;;
13386;SDS011;6763;48.524;9.044;2024-02-14T14:40:00;0.50;;;0.50;;
13386;SDS011;6763;48.524;9.044;2024-02-14T14:42:26;0.30;;;0.30;;
13386;SDS011;6763;48.524;9.044;2024-02-14T14:44:52;1.60;;;0.50;;
13386;SDS011;6763;48.524;9.044;2024-02-14T14:47:17;0.40;;;0.40;;
13386;SDS011;6763;48.524;9.044;2024-02-14T14:49:43;2.73;;;0.40;;
13386;SDS011;6763;48.524;9.044;2024-02-14T14:52:08;0.50;;;0.50;;
13386;SDS011;6763;48.524;9.044;2024-02-14T14:54:33;0.40;;;0.40;;
13386;SDS011;6763;48.524;9.044;2024-02-14T14:56:58;0.40;;;0.40;;